Nash, Texas
Current Conditions -  °F | °C
As of 2:53 AM on Saturday 25 Oct 2014 (Local Time) from KTXK Reporting Station
Clear Clear  
Wind Chill: 59°   Ceiling: Unl
Heat Index: 59°   Visibility: 8mi
Dew Point: 56°   Wind: 5mph
Humidity: 90%   Direction: 200°SSW
Pressure: 30.12"   Gusts: NA
Location:  33.44°N, 94.13°W
Report Text: KTXK 250753Z AUTO 20004KT 8SM CLR 15/13 A3012 RMK AO2 SLP195 T01500133
Loading
Personal Weather Stations






























Interactive Weather Map
Tropical Storm Tracking
New forecast layout! Learn more

10-Day Weather Forecast

Advertisements
Track Severe Weather on mobile